createdAt,value
2023-02-16T00:01:20.938Z,26.30
2023-02-16T00:03:49.324Z,24.35
2023-02-16T00:06:17.644Z,25.33
2023-02-16T00:08:46.533Z,25.58
2023-02-16T00:11:34.899Z,25.55
2023-02-16T00:14:05.221Z,27.33
2023-02-16T00:16:33.524Z,24.45
2023-02-16T00:19:01.937Z,26.95
2023-02-16T00:21:30.311Z,25.40
2023-02-16T00:23:58.554Z,26.48
2023-02-16T00:26:27.758Z,25.63
2023-02-16T00:28:58.503Z,27.33
2023-02-16T00:31:29.104Z,23.23
2023-02-16T00:33:57.554Z,25.52
2023-02-16T00:36:26.444Z,24.75
2023-02-16T00:38:54.772Z,24.25
2023-02-16T00:41:41.978Z,26.25
2023-02-16T00:44:14.641Z,23.45
2023-02-16T00:46:44.374Z,23.60
2023-02-16T00:49:15.027Z,22.38
2023-02-16T00:51:43.383Z,22.42
2023-02-16T00:54:12.276Z,23.83
2023-02-16T00:56:40.704Z,23.25
2023-02-16T00:59:10.832Z,23.13
2023-02-16T01:01:39.327Z,22.42
2023-02-16T01:04:09.623Z,22.48
2023-02-16T01:06:55.367Z,22.80
2023-02-16T01:09:41.217Z,23.48
2023-02-16T01:12:11.847Z,22.70
2023-02-16T01:14:40.234Z,22.45
2023-02-16T01:17:08.470Z,23.17
2023-02-16T01:19:38.153Z,21.25
2023-02-16T01:22:07.011Z,23.10
2023-02-16T01:24:35.288Z,22.13
2023-02-16T01:27:04.084Z,23.63
2023-02-16T01:29:32.391Z,22.48
2023-02-16T01:32:00.795Z,24.65
2023-02-16T01:34:29.119Z,24.10
2023-02-16T01:37:01.205Z,25.52
2023-02-16T01:39:29.443Z,23.45
2023-02-16T01:42:01.708Z,24.35
2023-02-16T01:44:33.292Z,24.45
2023-02-16T01:47:05.040Z,24.77
2023-02-16T01:49:33.436Z,23.27
2023-02-16T01:52:06.785Z,24.42
2023-02-16T01:54:37.539Z,23.25
2023-02-16T01:57:11.696Z,23.30
2023-02-16T01:59:43.135Z,23.25
2023-02-16T02:02:16.523Z,23.45
2023-02-16T02:05:04.354Z,23.33
2023-02-16T02:07:37.448Z,25.30
2023-02-16T02:10:09.296Z,23.52
2023-02-16T02:12:42.306Z,24.58
2023-02-16T02:15:10.998Z,22.67
2023-02-16T02:17:39.279Z,24.80
2023-02-16T02:20:10.665Z,25.52
2023-02-16T02:23:15.868Z,24.80
2023-02-16T02:25:57.813Z,26.35
2023-02-16T02:28:29.291Z,23.55
2023-02-16T02:31:00.362Z,23.77
2023-02-16T02:33:34.819Z,21.40
2023-02-16T02:36:10.497Z,23.48
2023-02-16T02:38:42.108Z,21.13
2023-02-16T02:41:13.972Z,22.30
2023-02-16T02:43:45.094Z,20.67
2023-02-16T02:46:14.856Z,21.48
2023-02-16T02:48:43.156Z,22.17
2023-02-16T02:51:33.544Z,22.08
2023-02-16T02:54:30.056Z,22.80
2023-02-16T02:57:23.205Z,23.00
2023-02-16T03:00:15.928Z,20.35
2023-02-16T03:02:45.649Z,22.52
2023-02-16T03:05:14.940Z,21.02
2023-02-16T03:07:47.603Z,20.02
2023-02-16T03:10:34.515Z,21.52
2023-02-16T03:13:03.775Z,19.75
2023-02-16T03:15:35.236Z,20.95
2023-02-16T03:18:22.361Z,21.10
2023-02-16T03:21:08.398Z,22.20
2023-02-16T03:23:55.606Z,21.30
2023-02-16T03:26:42.108Z,21.27
2023-02-16T03:29:17.306Z,20.73
2023-02-16T03:31:48.008Z,21.42
2023-02-16T03:34:16.776Z,21.08
2023-02-16T03:36:47.652Z,20.98
2023-02-16T03:39:16.083Z,22.83
2023-02-16T03:41:47.392Z,22.35
2023-02-16T03:44:15.823Z,20.88
2023-02-16T03:46:44.223Z,23.17
2023-02-16T03:49:13.878Z,23.02
2023-02-16T03:51:42.195Z,21.65
2023-02-16T03:54:10.534Z,22.65
2023-02-16T03:56:38.868Z,23.02
2023-02-16T03:59:07.182Z,20.70
2023-02-16T04:01:35.480Z,20.17
2023-02-16T04:04:03.915Z,21.13
2023-02-16T04:06:33.611Z,20.30
2023-02-16T04:09:02.309Z,20.58
2023-02-16T04:11:48.432Z,21.00
2023-02-16T04:14:16.827Z,20.55
2023-02-16T04:16:46.011Z,21.15
2023-02-16T04:19:15.154Z,19.95
2023-02-16T04:21:44.857Z,20.02
2023-02-16T04:24:13.151Z,20.15
2023-02-16T04:26:41.437Z,19.25
2023-02-16T04:29:09.722Z,20.35
2023-02-16T04:31:38.226Z,21.13
2023-02-16T04:34:06.562Z,19.67
2023-02-16T04:36:38.397Z,20.83
2023-02-16T04:39:08.046Z,20.73
2023-02-16T04:41:36.403Z,21.20
2023-02-16T04:44:04.649Z,20.45
2023-02-16T04:46:32.976Z,20.65
2023-02-16T04:49:01.452Z,21.17
2023-02-16T04:51:29.980Z,19.85
2023-02-16T04:53:58.320Z,19.55
2023-02-16T04:56:28.599Z,20.92
2023-02-16T04:58:57.717Z,19.80
2023-02-16T05:01:27.062Z,21.27
2023-02-16T05:03:55.867Z,21.10
2023-02-16T05:06:24.543Z,20.05
2023-02-16T05:08:52.915Z,18.92
2023-02-16T05:11:38.914Z,20.85
2023-02-16T05:14:26.307Z,19.77
2023-02-16T05:16:54.630Z,18.17
2023-02-16T05:19:22.900Z,19.63
2023-02-16T05:21:51.309Z,19.40
2023-02-16T05:24:19.584Z,19.75
2023-02-16T05:26:47.933Z,17.73
2023-02-16T05:29:17.519Z,18.80
2023-02-16T05:31:46.122Z,18.33
2023-02-16T05:34:14.631Z,18.63
2023-02-16T05:36:42.964Z,19.15
2023-02-16T05:39:11.342Z,19.40
2023-02-16T05:41:39.732Z,18.40
2023-02-16T05:44:08.765Z,17.25
2023-02-16T05:46:39.792Z,18.13
2023-02-16T05:49:08.825Z,18.52
2023-02-16T05:51:37.613Z,18.55
2023-02-16T05:54:06.412Z,18.10
2023-02-16T05:56:34.961Z,18.92
2023-02-16T05:59:03.255Z,18.25
2023-02-16T06:01:31.575Z,17.65
2023-02-16T06:04:01.321Z,19.13
2023-02-16T06:06:29.742Z,17.90
2023-02-16T06:08:58.041Z,18.38
2023-02-16T06:14:56.398Z,17.83
2023-02-16T06:17:24.955Z,17.85
2023-02-16T06:19:54.613Z,17.80
2023-02-16T06:22:23.205Z,18.25
2023-02-16T06:24:51.484Z,17.20
2023-02-16T06:27:19.830Z,17.77
2023-02-16T06:29:48.100Z,16.80
2023-02-16T06:32:17.046Z,17.45
2023-02-16T06:34:45.419Z,18.00
2023-02-16T06:37:15.002Z,17.15
2023-02-16T06:39:43.300Z,17.73
2023-02-16T06:42:11.617Z,16.52
2023-02-16T06:44:44.196Z,16.25
2023-02-16T06:47:12.647Z,17.83
2023-02-16T06:49:40.942Z,17.00
2023-02-16T06:52:09.982Z,16.63
2023-02-16T06:54:39.671Z,17.15
2023-02-16T06:57:07.964Z,17.17
2023-02-16T06:59:36.642Z,16.70
2023-02-16T07:02:04.973Z,18.27
2023-02-16T07:04:33.233Z,17.00
2023-02-16T07:07:01.563Z,17.55
2023-02-16T07:09:30.024Z,15.82
2023-02-16T07:11:59.651Z,16.27
2023-02-16T07:14:28.049Z,15.27
2023-02-16T07:16:58.956Z,17.33
2023-02-16T07:19:27.367Z,15.40
2023-02-16T07:21:55.666Z,16.00
2023-02-16T07:24:24.300Z,14.93
2023-02-16T07:26:52.594Z,15.27
2023-02-16T07:29:22.269Z,15.18
2023-02-16T07:31:53.431Z,17.27
2023-02-16T07:34:22.193Z,14.70
2023-02-16T07:36:50.655Z,14.98
2023-02-16T07:39:19.505Z,14.88
2023-02-16T07:41:47.976Z,15.13
2023-02-16T07:44:19.521Z,16.13
2023-02-16T07:46:49.349Z,15.50
2023-02-16T07:49:17.724Z,15.10
2023-02-16T07:51:46.104Z,15.68
2023-02-16T07:54:14.435Z,14.88
2023-02-16T07:56:42.737Z,15.10
2023-02-16T07:59:11.733Z,15.40
2023-02-16T08:01:41.126Z,15.48
2023-02-16T08:04:10.863Z,13.95
2023-02-16T08:06:39.288Z,15.02
2023-02-16T08:09:07.839Z,15.10
2023-02-16T08:11:36.306Z,15.38
2023-02-16T08:14:04.675Z,15.88
2023-02-16T08:16:33.098Z,16.33
2023-02-16T08:19:03.555Z,14.90
2023-02-16T08:21:34.709Z,14.25
2023-02-16T08:24:03.843Z,14.88
2023-02-16T08:26:36.711Z,15.80
2023-02-16T08:29:05.568Z,15.65
2023-02-16T08:31:36.572Z,14.65
2023-02-16T08:34:05.789Z,16.17
2023-02-16T08:36:36.482Z,16.67
2023-02-16T08:39:10.307Z,16.80
2023-02-16T08:41:41.378Z,18.77
2023-02-16T08:44:10.156Z,16.23
2023-02-16T08:46:39.825Z,16.55
2023-02-16T08:49:21.522Z,18.63
2023-02-16T08:51:54.625Z,16.90
2023-02-16T08:54:25.407Z,20.10
2023-02-16T08:56:54.297Z,19.10
2023-02-16T08:59:23.478Z,26.33
2023-02-16T09:01:52.273Z,19.98
2023-02-16T09:04:21.520Z,16.83
2023-02-16T09:06:50.286Z,16.40
2023-02-16T09:09:20.174Z,16.73
2023-02-16T09:11:49.159Z,19.23
2023-02-16T09:14:18.985Z,23.52
2023-02-16T09:16:48.079Z,22.27
2023-02-16T09:19:21.285Z,18.52
2023-02-16T09:21:54.380Z,26.02
2023-02-16T09:24:28.248Z,18.98
2023-02-16T09:27:01.694Z,19.92
2023-02-16T09:29:32.261Z,16.58
2023-02-16T09:32:03.005Z,17.17
2023-02-16T09:34:34.755Z,17.60
2023-02-16T09:37:04.008Z,19.48
2023-02-16T09:39:34.553Z,16.13
2023-02-16T09:42:16.880Z,19.25
2023-02-16T09:44:55.060Z,16.77
2023-02-16T09:47:33.328Z,15.05
2023-02-16T09:50:08.465Z,16.42
2023-02-16T09:52:40.229Z,15.80
2023-02-16T09:55:13.461Z,17.45
2023-02-16T09:57:44.640Z,14.77
2023-02-16T10:00:18.558Z,15.20
2023-02-16T10:02:51.568Z,15.40
2023-02-16T10:05:24.240Z,15.23
2023-02-16T10:08:02.155Z,14.43
2023-02-16T10:10:41.078Z,14.25
2023-02-16T10:13:38.676Z,17.30
2023-02-16T10:16:13.015Z,15.18
2023-02-16T10:18:43.608Z,15.20
2023-02-16T10:21:17.654Z,19.70
2023-02-16T10:23:48.429Z,29.35
2023-02-16T10:26:24.823Z,16.38
2023-02-16T10:28:55.366Z,15.43
2023-02-16T10:31:30.828Z,15.25
2023-02-16T10:38:06.720Z,15.85
2023-02-16T10:40:37.820Z,14.75
2023-02-16T10:43:14.025Z,15.32
2023-02-16T10:45:49.561Z,15.43
2023-02-16T10:48:21.666Z,16.23
2023-02-16T10:50:54.120Z,16.90
2023-02-16T10:53:23.368Z,15.27
2023-02-16T10:55:51.618Z,15.18
2023-02-16T10:58:24.225Z,15.20
2023-02-16T11:00:58.754Z,16.35
2023-02-16T11:03:35.970Z,20.77
2023-02-16T11:06:14.510Z,15.77
2023-02-16T11:08:49.675Z,15.52
2023-02-16T11:11:22.734Z,15.10
2023-02-16T11:14:00.012Z,14.68
2023-02-16T11:16:28.737Z,15.52
2023-02-16T11:18:58.513Z,15.63
2023-02-16T11:21:42.291Z,16.50
2023-02-16T11:24:12.115Z,19.42
2023-02-16T11:26:40.527Z,16.98
2023-02-16T11:29:19.489Z,16.17
2023-02-16T11:31:48.284Z,15.30
2023-02-16T11:34:24.575Z,17.33
2023-02-16T11:36:53.205Z,16.90
2023-02-16T11:39:22.780Z,16.75
2023-02-16T11:41:52.850Z,17.05
2023-02-16T11:44:26.939Z,16.50
2023-02-16T11:46:56.428Z,16.77
2023-02-16T11:49:31.467Z,17.30
2023-02-16T11:52:00.225Z,17.30
2023-02-16T11:54:28.613Z,16.95
2023-02-16T11:57:04.335Z,17.65
2023-02-16T11:59:36.458Z,18.17
2023-02-16T12:02:19.515Z,17.33
2023-02-16T12:05:07.448Z,16.45
2023-02-16T12:07:41.955Z,17.48
2023-02-16T12:10:11.510Z,18.15
2023-02-16T12:12:43.146Z,17.95
2023-02-16T12:15:21.055Z,17.55
2023-02-16T12:18:06.656Z,18.40
2023-02-16T12:20:43.291Z,19.00
2023-02-16T12:23:20.408Z,17.02
2023-02-16T12:25:52.404Z,18.80
2023-02-16T12:28:25.206Z,18.98
2023-02-16T12:30:59.832Z,18.95
2023-02-16T12:33:31.417Z,17.85
2023-02-16T12:36:22.941Z,19.23
2023-02-16T12:38:56.708Z,18.98
2023-02-16T12:41:30.340Z,19.70
2023-02-16T12:44:01.941Z,19.45
2023-02-16T12:46:33.953Z,18.60
2023-02-16T12:49:04.288Z,19.23
2023-02-16T12:51:36.456Z,19.17
2023-02-16T12:54:10.231Z,18.10
2023-02-16T12:56:40.955Z,18.13
2023-02-16T12:59:18.047Z,19.25
2023-02-16T13:01:48.777Z,19.17
2023-02-16T13:04:20.205Z,19.30
2023-02-16T13:06:52.611Z,18.90
2023-02-16T13:09:26.251Z,19.55
2023-02-16T13:11:56.885Z,19.52
2023-02-16T13:14:27.773Z,20.38
2023-02-16T13:16:59.066Z,18.75
2023-02-16T13:19:27.506Z,36.78
2023-02-16T13:22:06.529Z,18.65
2023-02-16T13:24:40.147Z,19.92
2023-02-16T13:27:20.088Z,20.27
2023-02-16T13:29:53.458Z,21.15
2023-02-16T13:32:40.684Z,20.13
2023-02-16T13:35:20.703Z,20.30
2023-02-16T13:37:57.440Z,20.52
2023-02-16T13:40:50.277Z,21.13
2023-02-16T13:43:23.872Z,20.08
2023-02-16T13:45:54.473Z,20.92
2023-02-16T13:48:25.252Z,20.88
2023-02-16T13:50:59.416Z,21.30
2023-02-16T13:53:28.193Z,20.85
2023-02-16T13:56:11.390Z,21.42
2023-02-16T13:58:40.709Z,20.50
2023-02-16T14:01:27.926Z,21.75
2023-02-16T14:03:56.270Z,21.02
2023-02-16T14:06:33.469Z,21.77
2023-02-16T14:09:21.194Z,21.50
2023-02-16T14:12:02.990Z,23.00
2023-02-16T14:14:32.352Z,20.58
2023-02-16T14:17:15.553Z,20.60
2023-02-16T14:19:51.152Z,21.38
2023-02-16T14:22:23.047Z,20.60
2023-02-16T14:24:55.489Z,22.33
2023-02-16T14:27:44.434Z,21.98
2023-02-16T14:30:26.620Z,20.98
2023-02-16T14:32:57.497Z,20.92
2023-02-16T14:35:28.584Z,21.27
2023-02-16T14:37:59.978Z,22.67
2023-02-16T14:40:42.904Z,21.45
2023-02-16T14:43:19.325Z,20.58
2023-02-16T14:45:54.916Z,45.58
2023-02-16T14:48:30.632Z,21.55
2023-02-16T14:51:10.611Z,23.23
2023-02-16T14:53:53.891Z,20.83
2023-02-16T14:56:36.832Z,21.27
2023-02-16T14:59:08.416Z,19.90
2023-02-16T15:01:41.152Z,20.60
2023-02-16T15:04:11.252Z,21.38
2023-02-16T15:06:41.395Z,21.42
2023-02-16T15:09:16.193Z,19.20
2023-02-16T15:12:08.192Z,19.83
2023-02-16T15:14:38.215Z,21.38
2023-02-16T15:17:08.068Z,34.05
2023-02-16T15:19:36.806Z,22.42
2023-02-16T15:22:19.370Z,20.30
2023-02-16T15:28:21.917Z,19.48
2023-02-16T15:30:52.035Z,19.70
2023-02-16T15:33:27.985Z,20.67
2023-02-16T15:35:59.136Z,20.13
2023-02-16T15:38:31.581Z,20.95
2023-02-16T15:41:01.137Z,20.55
2023-02-16T15:43:33.755Z,20.52
2023-02-16T15:46:03.802Z,18.92
2023-02-16T15:48:33.554Z,19.48
2023-02-16T15:51:03.549Z,18.65
2023-02-16T15:53:35.238Z,20.60
2023-02-16T15:56:04.489Z,24.52
2023-02-16T15:58:34.750Z,19.67
2023-02-16T16:01:03.769Z,25.70
2023-02-16T16:03:32.838Z,21.42
2023-02-16T16:06:04.766Z,23.38
2023-02-16T16:08:33.674Z,20.67
2023-02-16T16:11:02.434Z,21.20
2023-02-16T16:13:32.147Z,19.27
2023-02-16T16:16:04.703Z,19.55
2023-02-16T16:18:46.106Z,18.63
2023-02-16T16:21:19.910Z,20.77
2023-02-16T16:23:56.488Z,20.42
2023-02-16T16:26:25.914Z,20.80
2023-02-16T16:28:54.665Z,19.52
2023-02-16T16:31:35.141Z,19.08
2023-02-16T16:34:04.643Z,19.98
2023-02-16T16:36:33.954Z,20.52
2023-02-16T16:39:20.936Z,19.25
2023-02-16T16:42:08.046Z,20.35
2023-02-16T16:44:37.635Z,19.20
2023-02-16T16:47:15.884Z,19.60
2023-02-16T16:49:50.263Z,20.48
